sensor_id;sensor_type;location;lat;lon;timestamp;P1;durP1;ratioP1;P2;durP2;ratioP2
27071;SDS011;14613;46.308;25.288;2022-09-13T00:01:16;1.97;;;1.43;;
27071;SDS011;14613;46.308;25.288;2022-09-13T00:03:41;2.57;;;1.60;;
27071;SDS011;14613;46.308;25.288;2022-09-13T00:06:08;2.70;;;1.30;;
27071;SDS011;14613;46.308;25.288;2022-09-13T00:08:39;3.83;;;1.60;;
27071;SDS011;14613;46.308;25.288;2022-09-13T00:11:06;1.50;;;1.40;;
27071;SDS011;14613;46.308;25.288;2022-09-13T00:13:32;4.03;;;2.10;;
27071;SDS011;14613;46.308;25.288;2022-09-13T00:15:58;5.97;;;2.10;;
27071;SDS011;14613;46.308;25.288;2022-09-13T00:18:26;5.80;;;1.90;;
27071;SDS011;14613;46.308;25.288;2022-09-13T00:21:02;2.20;;;1.70;;
27071;SDS011;14613;46.308;25.288;2022-09-13T00:23:29;1.97;;;1.80;;
27071;SDS011;14613;46.308;25.288;2022-09-13T00:26:01;1.80;;;1.70;;
27071;SDS011;14613;46.308;25.288;2022-09-13T00:28:32;8.00;;;2.17;;
27071;SDS011;14613;46.308;25.288;2022-09-13T00:30:59;2.93;;;1.70;;
27071;SDS011;14613;46.308;25.288;2022-09-13T00:33:26;2.67;;;1.50;;
27071;SDS011;14613;46.308;25.288;2022-09-13T00:35:52;7.60;;;1.90;;
27071;SDS011;14613;46.308;25.288;2022-09-13T00:38:17;2.17;;;1.80;;
27071;SDS011;14613;46.308;25.288;2022-09-13T00:40:43;4.40;;;2.40;;
27071;SDS011;14613;46.308;25.288;2022-09-13T00:43:18;5.17;;;2.10;;
27071;SDS011;14613;46.308;25.288;2022-09-13T00:45:46;3.50;;;2.13;;
27071;SDS011;14613;46.308;25.288;2022-09-13T00:48:22;3.20;;;2.00;;
27071;SDS011;14613;46.308;25.288;2022-09-13T00:50:51;2.93;;;1.63;;
27071;SDS011;14613;46.308;25.288;2022-09-13T00:53:23;2.87;;;2.27;;
27071;SDS011;14613;46.308;25.288;2022-09-13T00:55:57;3.93;;;1.90;;
27071;SDS011;14613;46.308;25.288;2022-09-13T00:59:21;2.63;;;2.00;;
27071;SDS011;14613;46.308;25.288;2022-09-13T01:01:48;2.13;;;1.93;;
27071;SDS011;14613;46.308;25.288;2022-09-13T01:04:19;9.37;;;2.50;;
27071;SDS011;14613;46.308;25.288;2022-09-13T01:06:46;3.90;;;2.50;;
27071;SDS011;14613;46.308;25.288;2022-09-13T01:09:15;4.90;;;2.37;;
27071;SDS011;14613;46.308;25.288;2022-09-13T01:11:44;8.00;;;2.77;;
27071;SDS011;14613;46.308;25.288;2022-09-13T01:14:14;3.67;;;2.67;;
27071;SDS011;14613;46.308;25.288;2022-09-13T01:16:42;8.83;;;3.17;;
27071;SDS011;14613;46.308;25.288;2022-09-13T01:19:08;4.90;;;2.87;;
27071;SDS011;14613;46.308;25.288;2022-09-13T01:27:14;7.10;;;3.30;;
27071;SDS011;14613;46.308;25.288;2022-09-13T01:46:45;3.73;;;2.63;;
27071;SDS011;14613;46.308;25.288;2022-09-13T01:49:23;5.03;;;2.57;;
27071;SDS011;14613;46.308;25.288;2022-09-13T01:52:03;9.87;;;3.03;;
27071;SDS011;14613;46.308;25.288;2022-09-13T02:00:31;12.27;;;2.97;;
27071;SDS011;14613;46.308;25.288;2022-09-13T02:03:04;5.40;;;2.93;;
27071;SDS011;14613;46.308;25.288;2022-09-13T02:06:21;13.67;;;2.57;;
27071;SDS011;14613;46.308;25.288;2022-09-13T02:11:14;5.83;;;2.97;;
27071;SDS011;14613;46.308;25.288;2022-09-13T02:13:48;5.53;;;3.20;;
27071;SDS011;14613;46.308;25.288;2022-09-13T02:18:56;4.90;;;3.10;;
27071;SDS011;14613;46.308;25.288;2022-09-13T02:21:26;4.80;;;2.63;;
27071;SDS011;14613;46.308;25.288;2022-09-13T02:24:41;3.47;;;2.60;;
27071;SDS011;14613;46.308;25.288;2022-09-13T02:26:49;27.47;;;4.20;;
27071;SDS011;14613;46.308;25.288;2022-09-13T02:29:17;18.30;;;3.97;;
27071;SDS011;14613;46.308;25.288;2022-09-13T02:31:53;5.03;;;3.07;;
27071;SDS011;14613;46.308;25.288;2022-09-13T02:34:26;6.93;;;2.83;;
27071;SDS011;14613;46.308;25.288;2022-09-13T02:37:07;8.00;;;3.10;;
27071;SDS011;14613;46.308;25.288;2022-09-13T02:39:35;9.07;;;3.07;;
27071;SDS011;14613;46.308;25.288;2022-09-13T02:47:29;5.70;;;3.30;;
27071;SDS011;14613;46.308;25.288;2022-09-13T02:52:47;5.57;;;3.10;;
27071;SDS011;14613;46.308;25.288;2022-09-13T02:58:35;11.80;;;3.00;;
27071;SDS011;14613;46.308;25.288;2022-09-13T03:01:24;14.13;;;4.10;;
27071;SDS011;14613;46.308;25.288;2022-09-13T03:03:51;5.70;;;3.20;;
27071;SDS011;14613;46.308;25.288;2022-09-13T03:06:27;8.17;;;3.30;;
27071;SDS011;14613;46.308;25.288;2022-09-13T03:08:54;6.63;;;3.20;;
27071;SDS011;14613;46.308;25.288;2022-09-13T03:11:26;5.77;;;3.13;;
27071;SDS011;14613;46.308;25.288;2022-09-13T03:16:59;7.60;;;2.80;;
27071;SDS011;14613;46.308;25.288;2022-09-13T03:30:07;10.23;;;3.47;;
27071;SDS011;14613;46.308;25.288;2022-09-13T03:32:41;11.97;;;3.70;;
27071;SDS011;14613;46.308;25.288;2022-09-13T03:38:12;8.13;;;4.47;;
27071;SDS011;14613;46.308;25.288;2022-09-13T03:40:46;11.63;;;4.53;;
27071;SDS011;14613;46.308;25.288;2022-09-13T03:43:27;7.60;;;3.67;;
27071;SDS011;14613;46.308;25.288;2022-09-13T03:45:59;10.03;;;3.67;;
27071;SDS011;14613;46.308;25.288;2022-09-13T03:54:44;8.67;;;3.70;;
27071;SDS011;14613;46.308;25.288;2022-09-13T03:57:11;5.27;;;3.63;;
27071;SDS011;14613;46.308;25.288;2022-09-13T03:59:51;9.57;;;3.73;;
27071;SDS011;14613;46.308;25.288;2022-09-13T04:02:20;6.00;;;3.30;;
27071;SDS011;14613;46.308;25.288;2022-09-13T04:04:47;4.63;;;3.60;;
27071;SDS011;14613;46.308;25.288;2022-09-13T04:07:14;4.53;;;3.00;;
27071;SDS011;14613;46.308;25.288;2022-09-13T04:09:42;11.23;;;3.50;;
27071;SDS011;14613;46.308;25.288;2022-09-13T04:12:07;7.70;;;3.90;;
27071;SDS011;14613;46.308;25.288;2022-09-13T04:14:38;5.63;;;3.20;;
27071;SDS011;14613;46.308;25.288;2022-09-13T04:17:04;9.47;;;3.47;;
27071;SDS011;14613;46.308;25.288;2022-09-13T04:19:31;7.77;;;4.50;;
27071;SDS011;14613;46.308;25.288;2022-09-13T04:21:57;8.67;;;3.73;;
27071;SDS011;14613;46.308;25.288;2022-09-13T04:24:24;7.47;;;4.40;;
27071;SDS011;14613;46.308;25.288;2022-09-13T04:26:51;7.53;;;3.30;;
27071;SDS011;14613;46.308;25.288;2022-09-13T04:29:18;11.40;;;4.77;;
27071;SDS011;14613;46.308;25.288;2022-09-13T04:31:45;13.20;;;6.83;;
27071;SDS011;14613;46.308;25.288;2022-09-13T04:34:11;16.27;;;7.33;;
27071;SDS011;14613;46.308;25.288;2022-09-13T04:36:38;9.33;;;5.07;;
27071;SDS011;14613;46.308;25.288;2022-09-13T04:39:04;12.03;;;4.70;;
27071;SDS011;14613;46.308;25.288;2022-09-13T04:48:13;7.27;;;4.53;;
27071;SDS011;14613;46.308;25.288;2022-09-13T04:51:02;21.77;;;5.50;;
27071;SDS011;14613;46.308;25.288;2022-09-13T04:53:29;16.00;;;5.77;;
27071;SDS011;14613;46.308;25.288;2022-09-13T04:55:59;13.87;;;5.93;;
27071;SDS011;14613;46.308;25.288;2022-09-13T04:58:29;15.07;;;5.40;;
27071;SDS011;14613;46.308;25.288;2022-09-13T05:01:05;14.80;;;5.93;;
27071;SDS011;14613;46.308;25.288;2022-09-13T05:03:33;16.30;;;4.77;;
27071;SDS011;14613;46.308;25.288;2022-09-13T05:06:06;8.10;;;4.27;;
27071;SDS011;14613;46.308;25.288;2022-09-13T05:08:34;12.87;;;6.00;;
27071;SDS011;14613;46.308;25.288;2022-09-13T05:11:00;11.43;;;6.10;;
27071;SDS011;14613;46.308;25.288;2022-09-13T05:13:26;18.63;;;6.77;;
27071;SDS011;14613;46.308;25.288;2022-09-13T05:16:10;8.13;;;5.90;;
27071;SDS011;14613;46.308;25.288;2022-09-13T05:18:39;15.43;;;6.60;;
27071;SDS011;14613;46.308;25.288;2022-09-13T05:21:04;15.27;;;6.47;;
27071;SDS011;14613;46.308;25.288;2022-09-13T05:23:30;13.93;;;6.37;;
27071;SDS011;14613;46.308;25.288;2022-09-13T05:26:00;17.90;;;6.70;;
27071;SDS011;14613;46.308;25.288;2022-09-13T05:28:28;14.10;;;6.13;;
27071;SDS011;14613;46.308;25.288;2022-09-13T05:33:33;7.10;;;5.27;;
27071;SDS011;14613;46.308;25.288;2022-09-13T05:36:02;11.03;;;6.07;;
27071;SDS011;14613;46.308;25.288;2022-09-13T05:38:29;16.80;;;8.73;;
27071;SDS011;14613;46.308;25.288;2022-09-13T05:40:59;7.80;;;5.33;;
27071;SDS011;14613;46.308;25.288;2022-09-13T05:43:27;12.40;;;6.03;;
27071;SDS011;14613;46.308;25.288;2022-09-13T05:46:04;11.90;;;5.50;;
27071;SDS011;14613;46.308;25.288;2022-09-13T05:48:37;10.73;;;5.27;;
27071;SDS011;14613;46.308;25.288;2022-09-13T05:53:58;15.13;;;7.30;;
27071;SDS011;14613;46.308;25.288;2022-09-13T05:56:25;11.17;;;6.17;;
27071;SDS011;14613;46.308;25.288;2022-09-13T05:58:53;16.33;;;7.77;;
27071;SDS011;14613;46.308;25.288;2022-09-13T06:01:20;19.53;;;7.90;;
27071;SDS011;14613;46.308;25.288;2022-09-13T06:03:51;16.37;;;8.67;;
27071;SDS011;14613;46.308;25.288;2022-09-13T06:06:19;18.47;;;9.10;;
27071;SDS011;14613;46.308;25.288;2022-09-13T06:08:46;14.83;;;8.10;;
27071;SDS011;14613;46.308;25.288;2022-09-13T06:11:15;22.20;;;7.50;;
27071;SDS011;14613;46.308;25.288;2022-09-13T06:13:41;9.27;;;6.20;;
27071;SDS011;14613;46.308;25.288;2022-09-13T06:16:08;12.37;;;7.03;;
27071;SDS011;14613;46.308;25.288;2022-09-13T06:18:40;15.37;;;7.40;;
27071;SDS011;14613;46.308;25.288;2022-09-13T06:21:07;17.10;;;6.30;;
27071;SDS011;14613;46.308;25.288;2022-09-13T06:23:35;18.17;;;6.63;;
27071;SDS011;14613;46.308;25.288;2022-09-13T06:26:08;11.60;;;5.83;;
27071;SDS011;14613;46.308;25.288;2022-09-13T06:28:36;9.67;;;4.80;;
27071;SDS011;14613;46.308;25.288;2022-09-13T06:31:03;16.23;;;5.43;;
27071;SDS011;14613;46.308;25.288;2022-09-13T06:33:34;18.00;;;5.40;;
27071;SDS011;14613;46.308;25.288;2022-09-13T06:36:05;10.83;;;4.97;;
27071;SDS011;14613;46.308;25.288;2022-09-13T06:38:37;10.53;;;4.73;;
27071;SDS011;14613;46.308;25.288;2022-09-13T06:41:07;8.73;;;4.80;;
27071;SDS011;14613;46.308;25.288;2022-09-13T06:43:42;8.93;;;4.93;;
27071;SDS011;14613;46.308;25.288;2022-09-13T06:46:09;11.50;;;5.40;;
27071;SDS011;14613;46.308;25.288;2022-09-13T06:48:37;13.40;;;4.17;;
27071;SDS011;14613;46.308;25.288;2022-09-13T06:51:06;7.80;;;5.00;;
27071;SDS011;14613;46.308;25.288;2022-09-13T06:53:35;10.67;;;4.93;;
27071;SDS011;14613;46.308;25.288;2022-09-13T06:56:08;15.23;;;3.97;;
27071;SDS011;14613;46.308;25.288;2022-09-13T06:58:37;5.30;;;3.55;;
27071;SDS011;14613;46.308;25.288;2022-09-13T07:01:11;8.10;;;3.25;;
27071;SDS011;14613;46.308;25.288;2022-09-13T07:06:40;5.55;;;3.42;;
27071;SDS011;14613;46.308;25.288;2022-09-13T07:09:08;6.18;;;3.47;;
27071;SDS011;14613;46.308;25.288;2022-09-13T07:11:38;4.22;;;2.88;;
27071;SDS011;14613;46.308;25.288;2022-09-13T07:14:05;8.80;;;3.08;;
27071;SDS011;14613;46.308;25.288;2022-09-13T07:16:32;3.63;;;2.50;;
27071;SDS011;14613;46.308;25.288;2022-09-13T07:19:02;7.32;;;2.78;;
27071;SDS011;14613;46.308;25.288;2022-09-13T07:21:30;3.33;;;2.45;;
27071;SDS011;14613;46.308;25.288;2022-09-13T07:23:57;6.95;;;2.65;;
27071;SDS011;14613;46.308;25.288;2022-09-13T07:26:23;11.75;;;2.90;;
27071;SDS011;14613;46.308;25.288;2022-09-13T07:28:54;4.15;;;3.28;;
27071;SDS011;14613;46.308;25.288;2022-09-13T07:31:23;6.68;;;2.78;;
27071;SDS011;14613;46.308;25.288;2022-09-13T07:33:54;3.28;;;2.00;;
27071;SDS011;14613;46.308;25.288;2022-09-13T07:36:22;7.15;;;2.83;;
27071;SDS011;14613;46.308;25.288;2022-09-13T07:38:48;2.78;;;2.45;;
27071;SDS011;14613;46.308;25.288;2022-09-13T07:41:15;6.82;;;3.30;;
27071;SDS011;14613;46.308;25.288;2022-09-13T07:43:42;9.55;;;3.40;;
27071;SDS011;14613;46.308;25.288;2022-09-13T07:46:09;6.10;;;2.63;;
27071;SDS011;14613;46.308;25.288;2022-09-13T07:48:40;8.82;;;2.72;;
27071;SDS011;14613;46.308;25.288;2022-09-13T07:53:34;5.70;;;2.63;;
27071;SDS011;14613;46.308;25.288;2022-09-13T07:56:02;15.73;;;3.20;;
27071;SDS011;14613;46.308;25.288;2022-09-13T07:58:36;3.63;;;2.42;;
27071;SDS011;14613;46.308;25.288;2022-09-13T08:01:07;2.55;;;2.33;;
27071;SDS011;14613;46.308;25.288;2022-09-13T08:03:35;3.88;;;2.30;;
27071;SDS011;14613;46.308;25.288;2022-09-13T08:06:01;3.00;;;2.72;;
27071;SDS011;14613;46.308;25.288;2022-09-13T08:08:28;2.45;;;2.10;;
27071;SDS011;14613;46.308;25.288;2022-09-13T08:10:54;8.02;;;2.10;;
27071;SDS011;14613;46.308;25.288;2022-09-13T08:13:20;2.53;;;2.10;;
27071;SDS011;14613;46.308;25.288;2022-09-13T08:15:46;4.40;;;2.38;;
27071;SDS011;14613;46.308;25.288;2022-09-13T08:18:13;5.78;;;2.03;;
27071;SDS011;14613;46.308;25.288;2022-09-13T08:20:39;6.30;;;1.80;;
27071;SDS011;14613;46.308;25.288;2022-09-13T08:23:06;4.85;;;1.80;;
27071;SDS011;14613;46.308;25.288;2022-09-13T08:25:33;2.00;;;1.58;;
27071;SDS011;14613;46.308;25.288;2022-09-13T08:28:05;4.30;;;1.40;;
27071;SDS011;14613;46.308;25.288;2022-09-13T08:30:33;1.05;;;1.05;;
27071;SDS011;14613;46.308;25.288;2022-09-13T08:33:01;3.40;;;1.58;;
27071;SDS011;14613;46.308;25.288;2022-09-13T08:35:28;1.30;;;1.20;;
27071;SDS011;14613;46.308;25.288;2022-09-13T08:37:54;0.80;;;0.80;;
27071;SDS011;14613;46.308;25.288;2022-09-13T08:40:21;1.25;;;0.82;;
27071;SDS011;14613;46.308;25.288;2022-09-13T08:42:53;1.20;;;0.77;;
27071;SDS011;14613;46.308;25.288;2022-09-13T08:45:28;1.23;;;0.98;;
27071;SDS011;14613;46.308;25.288;2022-09-13T08:48:01;1.85;;;1.48;;
27071;SDS011;14613;46.308;25.288;2022-09-13T08:50:35;1.55;;;1.30;;
27071;SDS011;14613;46.308;25.288;2022-09-13T08:53:24;1.90;;;1.27;;
27071;SDS011;14613;46.308;25.288;2022-09-13T08:58:38;1.40;;;0.90;;
27071;SDS011;14613;46.308;25.288;2022-09-13T09:06:38;4.05;;;0.80;;
27071;SDS011;14613;46.308;25.288;2022-09-13T09:09:09;4.68;;;1.15;;
27071;SDS011;14613;46.308;25.288;2022-09-13T09:14:34;2.17;;;0.90;;
27071;SDS011;14613;46.308;25.288;2022-09-13T09:17:13;3.13;;;1.13;;
27071;SDS011;14613;46.308;25.288;2022-09-13T09:19:55;2.38;;;0.85;;
27071;SDS011;14613;46.308;25.288;2022-09-13T09:22:32;3.15;;;1.27;;
27071;SDS011;14613;46.308;25.288;2022-09-13T09:25:00;1.17;;;0.85;;
27071;SDS011;14613;46.308;25.288;2022-09-13T09:27:30;3.35;;;0.80;;
27071;SDS011;14613;46.308;25.288;2022-09-13T09:29:56;1.27;;;1.00;;
27071;SDS011;14613;46.308;25.288;2022-09-13T09:41:25;0.80;;;0.80;;
27071;SDS011;14613;46.308;25.288;2022-09-13T09:43:57;4.03;;;0.95;;
27071;SDS011;14613;46.308;25.288;2022-09-13T09:46:39;1.15;;;0.82;;
27071;SDS011;14613;46.308;25.288;2022-09-13T09:49:13;1.55;;;0.63;;
27071;SDS011;14613;46.308;25.288;2022-09-13T09:52:18;0.28;;;0.28;;
27071;SDS011;14613;46.308;25.288;2022-09-13T09:54:52;1.38;;;0.80;;
27071;SDS011;14613;46.308;25.288;2022-09-13T09:58:09;2.53;;;0.73;;
27071;SDS011;14613;46.308;25.288;2022-09-13T10:00:56;0.82;;;0.82;;
27071;SDS011;14613;46.308;25.288;2022-09-13T10:03:23;1.80;;;0.80;;
27071;SDS011;14613;46.308;25.288;2022-09-13T10:06:03;3.08;;;0.73;;
27071;SDS011;14613;46.308;25.288;2022-09-13T10:08:30;1.00;;;0.73;;
27071;SDS011;14613;46.308;25.288;2022-09-13T10:10:58;1.10;;;0.70;;
27071;SDS011;14613;46.308;25.288;2022-09-13T10:13:26;3.63;;;0.70;;
27071;SDS011;14613;46.308;25.288;2022-09-13T10:15:53;1.20;;;0.80;;
27071;SDS011;14613;46.308;25.288;2022-09-13T10:18:47;1.58;;;0.80;;
27071;SDS011;14613;46.308;25.288;2022-09-13T10:23:41;0.68;;;0.60;;
27071;SDS011;14613;46.308;25.288;2022-09-13T10:31:40;5.28;;;0.68;;
27071;SDS011;14613;46.308;25.288;2022-09-13T10:34:13;1.10;;;0.85;;
27071;SDS011;14613;46.308;25.288;2022-09-13T10:37:11;1.25;;;0.77;;
27071;SDS011;14613;46.308;25.288;2022-09-13T10:39:47;2.00;;;0.60;;
27071;SDS011;14613;46.308;25.288;2022-09-13T10:42:36;2.13;;;0.60;;
27071;SDS011;14613;46.308;25.288;2022-09-13T10:45:05;0.80;;;0.50;;
27071;SDS011;14613;46.308;25.288;2022-09-13T10:50:22;1.10;;;0.68;;
27071;SDS011;14613;46.308;25.288;2022-09-13T10:52:53;3.45;;;0.88;;
27071;SDS011;14613;46.308;25.288;2022-09-13T10:57:45;0.65;;;0.60;;
27071;SDS011;14613;46.308;25.288;2022-09-13T11:18:58;1.02;;;0.60;;
27071;SDS011;14613;46.308;25.288;2022-09-13T11:41:00;2.03;;;0.60;;
27071;SDS011;14613;46.308;25.288;2022-09-13T12:00:21;2.08;;;1.33;;
27071;SDS011;14613;46.308;25.288;2022-09-13T12:05:38;0.60;;;0.60;;
27071;SDS011;14613;46.308;25.288;2022-09-13T12:08:18;0.22;;;0.22;;
27071;SDS011;14613;46.308;25.288;2022-09-13T12:13:31;0.50;;;0.50;;
27071;SDS011;14613;46.308;25.288;2022-09-13T12:16:15;0.55;;;0.52;;
27071;SDS011;14613;46.308;25.288;2022-09-13T12:19:06;1.42;;;0.52;;
27071;SDS011;14613;46.308;25.288;2022-09-13T12:21:40;1.08;;;0.88;;
27071;SDS011;14613;46.308;25.288;2022-09-13T12:24:16;2.58;;;0.60;;
27071;SDS011;14613;46.308;25.288;2022-09-13T12:26:59;0.57;;;0.57;;
27071;SDS011;14613;46.308;25.288;2022-09-13T12:29:34;2.55;;;0.93;;
27071;SDS011;14613;46.308;25.288;2022-09-13T12:32:03;1.20;;;1.10;;
27071;SDS011;14613;46.308;25.288;2022-09-13T12:34:41;0.80;;;0.80;;
27071;SDS011;14613;46.308;25.288;2022-09-13T12:56:38;0.43;;;0.43;;
27071;SDS011;14613;46.308;25.288;2022-09-13T13:02:18;0.50;;;0.50;;
27071;SDS011;14613;46.308;25.288;2022-09-13T13:04:51;1.55;;;0.80;;
27071;SDS011;14613;46.308;25.288;2022-09-13T13:07:22;0.50;;;0.50;;
27071;SDS011;14613;46.308;25.288;2022-09-13T13:09:49;1.30;;;1.10;;
27071;SDS011;14613;46.308;25.288;2022-09-13T13:15:00;0.93;;;0.80;;
27071;SDS011;14613;46.308;25.288;2022-09-13T13:23:16;1.30;;;0.80;;
27071;SDS011;14613;46.308;25.288;2022-09-13T13:31:31;1.50;;;0.50;;
27071;SDS011;14613;46.308;25.288;2022-09-13T13:36:29;2.03;;;0.60;;
27071;SDS011;14613;46.308;25.288;2022-09-13T13:39:07;0.45;;;0.43;;
27071;SDS011;14613;46.308;25.288;2022-09-13T13:46:48;2.05;;;0.52;;
27071;SDS011;14613;46.308;25.288;2022-09-13T13:59:46;0.68;;;0.68;;
27071;SDS011;14613;46.308;25.288;2022-09-13T14:02:14;1.90;;;0.55;;
27071;SDS011;14613;46.308;25.288;2022-09-13T14:07:36;0.40;;;0.40;;
27071;SDS011;14613;46.308;25.288;2022-09-13T14:10:10;1.42;;;0.50;;
27071;SDS011;14613;46.308;25.288;2022-09-13T14:12:48;3.85;;;0.70;;
27071;SDS011;14613;46.308;25.288;2022-09-13T14:20:32;2.35;;;0.77;;
27071;SDS011;14613;46.308;25.288;2022-09-13T14:23:16;0.63;;;0.55;;
27071;SDS011;14613;46.308;25.288;2022-09-13T14:25:43;2.97;;;0.80;;
27071;SDS011;14613;46.308;25.288;2022-09-13T14:28:13;0.68;;;0.40;;
27071;SDS011;14613;46.308;25.288;2022-09-13T14:30:43;0.88;;;0.40;;
27071;SDS011;14613;46.308;25.288;2022-09-13T14:33:17;1.92;;;0.47;;
27071;SDS011;14613;46.308;25.288;2022-09-13T14:35:58;1.80;;;0.50;;
27071;SDS011;14613;46.308;25.288;2022-09-13T14:38:30;0.80;;;0.80;;
27071;SDS011;14613;46.308;25.288;2022-09-13T14:41:17;0.50;;;0.50;;
27071;SDS011;14613;46.308;25.288;2022-09-13T14:43:45;3.70;;;0.88;;
27071;SDS011;14613;46.308;25.288;2022-09-13T14:46:24;1.13;;;0.98;;
27071;SDS011;14613;46.308;25.288;2022-09-13T14:49:03;1.75;;;0.77;;
27071;SDS011;14613;46.308;25.288;2022-09-13T14:51:37;0.63;;;0.57;;
27071;SDS011;14613;46.308;25.288;2022-09-13T14:56:50;0.70;;;0.55;;
27071;SDS011;14613;46.308;25.288;2022-09-13T14:59:24;0.82;;;0.82;;
27071;SDS011;14613;46.308;25.288;2022-09-13T15:01:53;3.22;;;0.70;;
27071;SDS011;14613;46.308;25.288;2022-09-13T15:04:19;2.10;;;0.75;;
27071;SDS011;14613;46.308;25.288;2022-09-13T15:06:47;0.57;;;0.57;;
27071;SDS011;14613;46.308;25.288;2022-09-13T15:09:32;2.13;;;0.90;;
27071;SDS011;14613;46.308;25.288;2022-09-13T15:11:59;2.00;;;0.80;;
27071;SDS011;14613;46.308;25.288;2022-09-13T15:14:35;2.65;;;1.20;;
27071;SDS011;14613;46.308;25.288;2022-09-13T15:17:11;0.60;;;0.60;;
27071;SDS011;14613;46.308;25.288;2022-09-13T15:22:19;0.55;;;0.50;;
27071;SDS011;14613;46.308;25.288;2022-09-13T15:24:50;0.77;;;0.60;;
27071;SDS011;14613;46.308;25.288;2022-09-13T15:27:23;1.13;;;1.02;;
27071;SDS011;14613;46.308;25.288;2022-09-13T15:30:01;1.17;;;0.60;;
27071;SDS011;14613;46.308;25.288;2022-09-13T15:32:31;1.40;;;0.82;;
27071;SDS011;14613;46.308;25.288;2022-09-13T15:35:14;0.90;;;0.90;;
27071;SDS011;14613;46.308;25.288;2022-09-13T15:38:00;2.85;;;1.00;;
27071;SDS011;14613;46.308;25.288;2022-09-13T15:40:43;4.25;;;0.75;;
27071;SDS011;14613;46.308;25.288;2022-09-13T15:43:10;2.17;;;1.02;;
27071;SDS011;14613;46.308;25.288;2022-09-13T15:45:36;1.45;;;0.77;;
27071;SDS011;14613;46.308;25.288;2022-09-13T15:48:02;2.33;;;1.00;;
27071;SDS011;14613;46.308;25.288;2022-09-13T15:50:29;1.58;;;0.90;;
27071;SDS011;14613;46.308;25.288;2022-09-13T15:52:57;3.78;;;1.00;;
27071;SDS011;14613;46.308;25.288;2022-09-13T15:55:25;1.75;;;0.82;;
27071;SDS011;14613;46.308;25.288;2022-09-13T15:57:52;6.18;;;1.80;;
27071;SDS011;14613;46.308;25.288;2022-09-13T16:00:21;2.30;;;1.40;;
27071;SDS011;14613;46.308;25.288;2022-09-13T16:02:48;1.52;;;1.20;;
27071;SDS011;14613;46.308;25.288;2022-09-13T16:05:15;3.05;;;1.60;;
27071;SDS011;14613;46.308;25.288;2022-09-13T16:07:41;1.85;;;1.20;;
27071;SDS011;14613;46.308;25.288;2022-09-13T16:10:40;3.15;;;0.98;;
27071;SDS011;14613;46.308;25.288;2022-09-13T16:12:59;2.55;;;0.85;;
27071;SDS011;14613;46.308;25.288;2022-09-13T16:15:25;4.32;;;1.40;;
27071;SDS011;14613;46.308;25.288;2022-09-13T16:17:52;3.55;;;1.50;;
27071;SDS011;14613;46.308;25.288;2022-09-13T16:20:18;3.42;;;1.50;;
27071;SDS011;14613;46.308;25.288;2022-09-13T16:22:44;1.60;;;1.40;;
27071;SDS011;14613;46.308;25.288;2022-09-13T16:25:13;4.43;;;1.20;;
27071;SDS011;14613;46.308;25.288;2022-09-13T16:27:40;7.15;;;2.03;;
27071;SDS011;14613;46.308;25.288;2022-09-13T16:30:08;3.83;;;1.52;;
27071;SDS011;14613;46.308;25.288;2022-09-13T16:32:36;3.78;;;1.27;;
27071;SDS011;14613;46.308;25.288;2022-09-13T16:35:02;1.27;;;0.93;;
27071;SDS011;14613;46.308;25.288;2022-09-13T16:37:28;1.00;;;0.80;;
27071;SDS011;14613;46.308;25.288;2022-09-13T16:39:55;1.42;;;0.82;;
27071;SDS011;14613;46.308;25.288;2022-09-13T16:42:22;2.95;;;2.08;;
27071;SDS011;14613;46.308;25.288;2022-09-13T16:44:51;2.60;;;1.42;;
27071;SDS011;14613;46.308;25.288;2022-09-13T16:47:16;5.40;;;1.40;;
27071;SDS011;14613;46.308;25.288;2022-09-13T16:49:43;1.85;;;1.60;;
27071;SDS011;14613;46.308;25.288;2022-09-13T16:52:18;3.88;;;1.23;;
27071;SDS011;14613;46.308;25.288;2022-09-13T16:54:46;3.83;;;0.80;;
27071;SDS011;14613;46.308;25.288;2022-09-13T16:57:13;2.20;;;1.50;;
27071;SDS011;14613;46.308;25.288;2022-09-13T16:59:39;7.10;;;3.65;;
27071;SDS011;14613;46.308;25.288;2022-09-13T17:02:11;5.30;;;3.40;;
27071;SDS011;14613;46.308;25.288;2022-09-13T17:04:37;3.15;;;2.25;;
27071;SDS011;14613;46.308;25.288;2022-09-13T17:07:03;2.93;;;1.70;;
27071;SDS011;14613;46.308;25.288;2022-09-13T17:09:30;5.80;;;1.70;;
27071;SDS011;14613;46.308;25.288;2022-09-13T17:11:56;1.83;;;1.40;;
27071;SDS011;14613;46.308;25.288;2022-09-13T17:14:26;5.22;;;1.80;;
27071;SDS011;14613;46.308;25.288;2022-09-13T17:16:57;3.42;;;1.30;;
27071;SDS011;14613;46.308;25.288;2022-09-13T17:19:27;7.32;;;2.22;;
27071;SDS011;14613;46.308;25.288;2022-09-13T17:21:55;4.97;;;2.70;;
27071;SDS011;14613;46.308;25.288;2022-09-13T17:24:28;4.57;;;2.83;;
27071;SDS011;14613;46.308;25.288;2022-09-13T17:27:08;12.82;;;4.70;;
27071;SDS011;14613;46.308;25.288;2022-09-13T17:29:36;7.57;;;3.28;;
27071;SDS011;14613;46.308;25.288;2022-09-13T17:32:03;3.47;;;1.10;;
27071;SDS011;14613;46.308;25.288;2022-09-13T17:34:33;1.27;;;1.17;;
27071;SDS011;14613;46.308;25.288;2022-09-13T17:39:51;5.70;;;1.60;;
27071;SDS011;14613;46.308;25.288;2022-09-13T17:42:16;3.85;;;1.85;;
27071;SDS011;14613;46.308;25.288;2022-09-13T17:44:42;2.60;;;1.00;;
27071;SDS011;14613;46.308;25.288;2022-09-13T17:50:25;2.80;;;1.40;;
27071;SDS011;14613;46.308;25.288;2022-09-13T17:55:48;0.90;;;0.83;;
27071;SDS011;14613;46.308;25.288;2022-09-13T17:58:15;1.27;;;1.17;;
27071;SDS011;14613;46.308;25.288;2022-09-13T18:03:37;1.07;;;0.90;;
27071;SDS011;14613;46.308;25.288;2022-09-13T18:06:04;1.42;;;0.93;;
27071;SDS011;14613;46.308;25.288;2022-09-13T18:11:41;2.30;;;1.73;;
27071;SDS011;14613;46.308;25.288;2022-09-13T18:14:19;2.57;;;1.63;;
27071;SDS011;14613;46.308;25.288;2022-09-13T18:16:45;2.07;;;1.57;;
27071;SDS011;14613;46.308;25.288;2022-09-13T18:22:37;8.83;;;4.57;;
27071;SDS011;14613;46.308;25.288;2022-09-13T18:25:07;2.63;;;1.90;;
27071;SDS011;14613;46.308;25.288;2022-09-13T18:27:33;4.15;;;2.05;;
27071;SDS011;14613;46.308;25.288;2022-09-13T18:29:59;2.42;;;2.03;;
27071;SDS011;14613;46.308;25.288;2022-09-13T18:32:27;7.43;;;3.23;;
27071;SDS011;14613;46.308;25.288;2022-09-13T18:38:15;5.10;;;1.90;;
27071;SDS011;14613;46.308;25.288;2022-09-13T18:43:41;4.00;;;1.70;;
27071;SDS011;14613;46.308;25.288;2022-09-13T18:46:09;2.27;;;1.73;;
27071;SDS011;14613;46.308;25.288;2022-09-13T18:52:08;16.40;;;8.83;;
27071;SDS011;14613;46.308;25.288;2022-09-13T18:54:53;8.07;;;5.10;;
27071;SDS011;14613;46.308;25.288;2022-09-13T18:57:19;5.37;;;3.93;;
27071;SDS011;14613;46.308;25.288;2022-09-13T18:59:48;4.67;;;3.10;;
27071;SDS011;14613;46.308;25.288;2022-09-13T19:02:14;9.37;;;4.73;;
27071;SDS011;14613;46.308;25.288;2022-09-13T19:08:02;2.53;;;2.13;;
27071;SDS011;14613;46.308;25.288;2022-09-13T19:10:38;9.63;;;1.80;;
27071;SDS011;14613;46.308;25.288;2022-09-13T19:13:20;5.10;;;2.30;;
27071;SDS011;14613;46.308;25.288;2022-09-13T19:16:30;7.23;;;3.23;;
27071;SDS011;14613;46.308;25.288;2022-09-13T19:18:56;6.57;;;2.73;;
27071;SDS011;14613;46.308;25.288;2022-09-13T19:27:51;3.17;;;2.47;;
27071;SDS011;14613;46.308;25.288;2022-09-13T19:30:17;4.03;;;2.30;;
27071;SDS011;14613;46.308;25.288;2022-09-13T19:32:43;4.37;;;2.53;;
27071;SDS011;14613;46.308;25.288;2022-09-13T19:35:08;4.07;;;2.70;;
27071;SDS011;14613;46.308;25.288;2022-09-13T19:37:34;6.33;;;2.53;;
27071;SDS011;14613;46.308;25.288;2022-09-13T19:40:00;7.60;;;2.87;;
27071;SDS011;14613;46.308;25.288;2022-09-13T19:42:26;8.03;;;2.80;;